createdAt,value
2023-03-02T00:02:10.890Z,85.82
2023-03-02T00:04:47.513Z,86.05
2023-03-02T00:07:18.394Z,84.07
2023-03-02T00:09:47.413Z,62.35
2023-03-02T00:12:17.641Z,51.17
2023-03-02T00:14:46.982Z,44.00
2023-03-02T00:17:17.706Z,45.72
2023-03-02T00:19:49.882Z,44.15
2023-03-02T00:22:20.330Z,45.08
2023-03-02T00:24:53.168Z,52.75
2023-03-02T00:27:23.609Z,60.15
2023-03-02T00:29:53.298Z,53.72
2023-03-02T00:32:22.716Z,61.45
2023-03-02T00:34:51.373Z,67.10
2023-03-02T00:37:21.725Z,66.78
2023-03-02T00:39:52.260Z,51.83
2023-03-02T00:42:21.279Z,57.08
2023-03-02T00:44:53.483Z,50.85
2023-03-02T00:47:29.898Z,50.58
2023-03-02T00:50:01.659Z,47.67
2023-03-02T00:52:30.977Z,59.53
2023-03-02T00:55:00.741Z,43.35
2023-03-02T00:57:31.762Z,46.28
2023-03-02T01:00:01.115Z,52.30
2023-03-02T01:02:44.505Z,48.10
2023-03-02T01:05:21.628Z,44.65
2023-03-02T01:07:53.589Z,45.22
2023-03-02T01:10:28.323Z,52.95
2023-03-02T01:12:59.507Z,46.15
2023-03-02T01:15:29.461Z,41.25
2023-03-02T01:17:57.858Z,48.88
2023-03-02T01:21:23.940Z,47.40
2023-03-02T01:24:14.434Z,46.38
2023-03-02T01:26:43.236Z,45.13
2023-03-02T01:29:12.664Z,38.70
2023-03-02T01:31:42.060Z,35.75
2023-03-02T01:34:13.412Z,35.10
2023-03-02T01:36:47.331Z,32.38
2023-03-02T01:39:17.446Z,30.30
2023-03-02T01:41:46.853Z,29.25
2023-03-02T01:44:37.373Z,24.42
2023-03-02T01:47:45.809Z,25.85
2023-03-02T01:50:22.611Z,29.77
2023-03-02T01:52:58.108Z,30.23
2023-03-02T01:56:00.787Z,28.42
2023-03-02T01:59:51.212Z,26.48
2023-03-02T02:02:21.730Z,29.25
2023-03-02T02:04:59.419Z,27.95
2023-03-02T02:07:28.308Z,29.48
2023-03-02T02:09:59.110Z,31.95
2023-03-02T02:12:27.967Z,23.10
2023-03-02T02:15:00.760Z,18.33
2023-03-02T02:17:38.454Z,18.83
2023-03-02T02:23:55.080Z,35.22
2023-03-02T02:26:35.589Z,33.90
2023-03-02T02:29:14.017Z,35.00
2023-03-02T02:31:50.294Z,36.03
2023-03-02T02:34:41.432Z,35.42
2023-03-02T02:37:25.324Z,39.85
2023-03-02T02:40:07.283Z,39.72
2023-03-02T02:42:44.181Z,38.20
2023-03-02T02:45:39.861Z,34.70
2023-03-02T02:48:16.969Z,34.05
2023-03-02T02:51:00.632Z,29.85
2023-03-02T02:53:42.162Z,30.98
2023-03-02T02:56:12.476Z,29.05
2023-03-02T02:58:48.762Z,25.45
2023-03-02T03:01:22.242Z,23.42
2023-03-02T03:03:52.838Z,20.65
2023-03-02T03:06:38.468Z,24.33
2023-03-02T03:09:11.423Z,36.55
2023-03-02T03:11:55.655Z,35.42
2023-03-02T03:14:36.549Z,33.72
2023-03-02T03:17:12.259Z,31.10
2023-03-02T03:19:50.394Z,36.28
2023-03-02T03:22:26.422Z,30.42
2023-03-02T03:24:56.190Z,24.08
2023-03-02T03:27:24.839Z,25.30
2023-03-02T03:29:55.481Z,18.90
2023-03-02T03:32:34.314Z,16.83
2023-03-02T03:35:08.560Z,29.63
2023-03-02T03:37:40.758Z,34.78
2023-03-02T03:40:13.947Z,36.28
2023-03-02T03:42:48.710Z,32.50
2023-03-02T03:45:21.995Z,35.90
2023-03-02T03:47:51.888Z,34.75
2023-03-02T03:50:21.970Z,33.25
2023-03-02T03:52:54.242Z,28.70
2023-03-02T03:55:29.143Z,27.02
2023-03-02T03:58:01.908Z,26.02
2023-03-02T04:00:31.860Z,29.25
2023-03-02T04:03:18.864Z,28.10
2023-03-02T04:05:50.006Z,27.35
2023-03-02T04:08:20.250Z,28.33
2023-03-02T04:10:52.918Z,27.52
2023-03-02T04:13:23.086Z,27.25
2023-03-02T04:15:56.212Z,24.55
2023-03-02T04:18:26.777Z,20.27
2023-03-02T04:20:55.740Z,22.60
2023-03-02T04:23:34.862Z,23.15
2023-03-02T04:26:07.290Z,22.95
2023-03-02T04:28:38.212Z,18.80
2023-03-02T04:31:09.929Z,20.38
2023-03-02T04:33:52.926Z,16.63
2023-03-02T04:36:39.224Z,17.55
2023-03-02T04:39:17.023Z,18.58
2023-03-02T04:41:52.131Z,16.08
2023-03-02T04:44:26.085Z,14.35
2023-03-02T04:47:02.319Z,15.57
2023-03-02T04:49:33.613Z,15.70
2023-03-02T04:52:09.062Z,13.43
2023-03-02T04:54:41.207Z,12.32
2023-03-02T04:57:11.003Z,13.07
2023-03-02T04:59:43.536Z,11.30
2023-03-02T05:02:12.225Z,14.43
2023-03-02T05:04:42.558Z,15.88
2023-03-02T05:07:14.319Z,12.35
2023-03-02T05:09:47.979Z,20.65
2023-03-02T05:12:28.882Z,22.35
2023-03-02T05:14:59.136Z,13.20
2023-03-02T05:17:28.075Z,13.48
2023-03-02T05:20:30.473Z,13.60
2023-03-02T05:23:06.295Z,14.35
2023-03-02T05:25:39.010Z,12.70
2023-03-02T05:28:13.083Z,15.48
2023-03-02T05:30:44.019Z,19.25
2023-03-02T05:33:13.996Z,17.75
2023-03-02T05:35:42.810Z,18.58
2023-03-02T05:38:12.078Z,18.73
2023-03-02T05:40:42.845Z,25.05
2023-03-02T05:43:20.850Z,23.63
2023-03-02T05:45:53.146Z,23.83
2023-03-02T05:48:31.107Z,22.73
2023-03-02T05:51:05.586Z,19.25
2023-03-02T05:53:48.118Z,21.23
2023-03-02T05:56:22.094Z,21.60
2023-03-02T05:59:03.240Z,22.92
2023-03-02T06:01:33.487Z,34.30
2023-03-02T06:04:02.515Z,17.48
2023-03-02T06:06:36.247Z,18.23
2023-03-02T06:09:06.003Z,34.22
2023-03-02T06:11:35.821Z,18.67
2023-03-02T06:14:13.690Z,20.90
2023-03-02T06:16:46.969Z,20.58
2023-03-02T06:19:16.462Z,23.92
2023-03-02T06:21:47.124Z,40.05
2023-03-02T06:24:17.780Z,63.40
2023-03-02T06:26:49.561Z,29.05
2023-03-02T06:29:25.395Z,26.42
2023-03-02T06:31:56.283Z,23.00
2023-03-02T06:34:25.858Z,25.90
2023-03-02T06:36:58.355Z,26.77
2023-03-02T06:39:34.897Z,25.13
2023-03-02T06:42:03.259Z,24.52
2023-03-02T06:44:34.590Z,22.17
2023-03-02T06:47:02.908Z,22.65
2023-03-02T06:49:47.165Z,21.02
2023-03-02T06:52:17.093Z,20.40
2023-03-02T06:54:45.909Z,14.13
2023-03-02T06:57:14.484Z,15.45
2023-03-02T06:59:43.964Z,21.02
2023-03-02T07:02:15.194Z,19.83
2023-03-02T07:04:47.454Z,14.68
2023-03-02T07:07:17.606Z,14.90
2023-03-02T07:09:49.910Z,11.93
2023-03-02T07:12:19.093Z,16.90
2023-03-02T07:14:47.357Z,16.05
2023-03-02T07:17:15.868Z,16.88
2023-03-02T07:19:50.262Z,23.67
2023-03-02T07:22:21.825Z,15.02
2023-03-02T07:24:50.944Z,14.93
2023-03-02T07:27:21.405Z,15.45
2023-03-02T07:29:50.858Z,14.20
2023-03-02T07:32:28.744Z,107.28
2023-03-02T07:34:57.018Z,4.75
2023-03-02T07:37:31.551Z,3.10
2023-03-02T07:40:00.912Z,46.08
2023-03-02T07:42:32.942Z,12.68
2023-03-02T07:45:05.002Z,8.30
2023-03-02T07:47:34.124Z,25.98
2023-03-02T07:50:02.504Z,34.83
2023-03-02T07:52:31.840Z,5.95
2023-03-02T07:55:00.164Z,6.78
2023-03-02T07:57:36.832Z,3.97
2023-03-02T08:00:07.927Z,17.60
2023-03-02T08:02:43.286Z,18.10
2023-03-02T08:05:12.287Z,11.32
2023-03-02T08:07:42.422Z,9.18
2023-03-02T08:10:13.142Z,9.23
2023-03-02T08:12:44.938Z,54.28
2023-03-02T08:15:14.445Z,16.98
2023-03-02T08:17:43.025Z,6.22
2023-03-02T08:20:11.866Z,4.38
2023-03-02T08:22:40.873Z,4.95
2023-03-02T08:25:09.154Z,6.55
2023-03-02T08:27:40.318Z,6.88
2023-03-02T08:30:09.228Z,8.25
2023-03-02T08:32:38.026Z,2.50
2023-03-02T08:35:07.439Z,2.10
2023-03-02T08:37:38.730Z,4.28
2023-03-02T08:40:09.004Z,2.63
2023-03-02T08:42:41.068Z,2.70
2023-03-02T08:45:09.856Z,2.88
2023-03-02T08:47:38.711Z,3.58
2023-03-02T08:50:07.291Z,1.90
2023-03-02T08:52:36.299Z,2.85
2023-03-02T08:55:04.896Z,6.13
2023-03-02T08:57:34.853Z,3.20
2023-03-02T09:00:05.132Z,2.60
2023-03-02T09:02:35.299Z,5.53
2023-03-02T09:05:05.125Z,5.03
2023-03-02T09:07:42.613Z,6.38
2023-03-02T09:10:17.856Z,33.33
2023-03-02T09:12:47.927Z,6.78
2023-03-02T09:15:17.646Z,2.95
2023-03-02T09:17:51.917Z,3.05
2023-03-02T09:20:21.016Z,5.32
2023-03-02T09:22:50.975Z,2.20
2023-03-02T09:25:19.540Z,2.42
2023-03-02T09:27:48.919Z,8.70
2023-03-02T09:30:17.551Z,2.75
2023-03-02T09:32:50.111Z,3.88
2023-03-02T09:35:20.316Z,3.55
2023-03-02T09:37:49.006Z,4.63
2023-03-02T09:40:24.479Z,2.83
2023-03-02T09:43:05.821Z,3.50
2023-03-02T09:46:04.148Z,2.83
2023-03-02T09:48:39.047Z,2.58
2023-03-02T09:51:22.101Z,2.95
2023-03-02T09:54:10.888Z,3.88
2023-03-02T09:56:52.458Z,2.90
2023-03-02T09:59:30.667Z,20.98
2023-03-02T10:02:32.730Z,6.22
2023-03-02T10:05:10.042Z,7.63
2023-03-02T10:07:40.246Z,8.70
2023-03-02T10:10:50.675Z,5.13
2023-03-02T10:13:47.734Z,11.18
2023-03-02T10:16:28.721Z,4.65
2023-03-02T10:19:05.222Z,13.98
2023-03-02T10:21:43.064Z,8.45
2023-03-02T10:24:12.238Z,10.13
2023-03-02T10:26:46.848Z,6.20
2023-03-02T10:29:23.964Z,7.50
2023-03-02T10:32:17.516Z,8.30
2023-03-02T10:34:53.275Z,7.13
2023-03-02T10:37:33.069Z,9.77
2023-03-02T10:40:07.158Z,11.38
2023-03-02T10:42:41.081Z,8.77
2023-03-02T10:45:32.171Z,26.85
2023-03-02T10:48:02.561Z,10.40
2023-03-02T10:50:32.308Z,27.30
2023-03-02T10:53:05.208Z,43.95
2023-03-02T10:55:35.474Z,3.50
2023-03-02T10:58:07.492Z,16.58
2023-03-02T11:00:44.687Z,12.50
2023-03-02T11:03:23.699Z,10.50
2023-03-02T11:05:57.286Z,5.80
2023-03-02T11:08:33.938Z,7.00
2023-03-02T11:11:08.673Z,7.60
2023-03-02T11:13:42.341Z,47.15
2023-03-02T11:16:29.253Z,9.32
2023-03-02T11:19:07.143Z,4.60
2023-03-02T11:22:00.626Z,20.57
2023-03-02T11:24:39.417Z,5.20
2023-03-02T11:30:01.564Z,6.80
2023-03-02T11:32:49.091Z,42.90
2023-03-02T11:35:47.670Z,4.38
2023-03-02T11:38:37.029Z,5.60
2023-03-02T11:44:51.631Z,28.77
2023-03-02T11:48:17.909Z,17.13
2023-03-02T11:51:03.088Z,6.60
2023-03-02T11:53:47.158Z,11.18
2023-03-02T11:56:24.385Z,14.73
2023-03-02T11:59:04.769Z,4.25
2023-03-02T12:01:38.160Z,6.90
2023-03-02T12:04:45.330Z,7.47
2023-03-02T12:07:54.473Z,8.75
2023-03-02T12:10:43.971Z,39.15
2023-03-02T12:13:25.239Z,36.85
2023-03-02T12:15:56.788Z,46.40
2023-03-02T12:18:45.921Z,7.93
2023-03-02T12:21:26.047Z,3.33
2023-03-02T12:23:58.415Z,19.90
2023-03-02T12:26:39.900Z,3.83
2023-03-02T12:29:15.528Z,8.70
2023-03-02T12:31:59.601Z,4.53
2023-03-02T12:34:39.136Z,7.45
2023-03-02T12:37:30.969Z,5.80
2023-03-02T12:40:06.115Z,4.32
2023-03-02T12:43:05.428Z,6.95
2023-03-02T12:45:56.094Z,8.98
2023-03-02T12:48:30.540Z,6.97
2023-03-02T12:51:04.614Z,5.25
2023-03-02T12:53:34.076Z,14.63
2023-03-02T12:56:38.888Z,12.63
2023-03-02T12:59:34.181Z,15.40
2023-03-02T13:02:27.649Z,6.57
2023-03-02T13:05:08.498Z,9.27
2023-03-02T13:07:50.695Z,5.20
2023-03-02T13:10:41.330Z,18.95
2023-03-02T13:13:20.707Z,4.63
2023-03-02T13:16:29.961Z,12.75
2023-03-02T13:19:13.267Z,6.43
2023-03-02T13:21:42.060Z,5.72
2023-03-02T13:24:32.639Z,21.35
2023-03-02T13:27:08.461Z,24.33
2023-03-02T13:29:47.246Z,10.57
2023-03-02T13:32:38.487Z,52.35
2023-03-02T13:35:24.398Z,30.52
2023-03-02T13:38:02.466Z,8.20
2023-03-02T13:40:39.720Z,12.30
2023-03-02T13:43:36.125Z,6.68
2023-03-02T13:46:15.184Z,4.43
2023-03-02T13:49:10.636Z,4.95
2023-03-02T13:51:45.270Z,6.95
2023-03-02T13:54:27.985Z,3.38
2023-03-02T13:57:00.918Z,12.02
2023-03-02T13:59:32.274Z,3.92
2023-03-02T14:02:03.419Z,4.20
2023-03-02T14:04:34.105Z,3.45
2023-03-02T14:07:02.875Z,63.17
2023-03-02T14:09:32.434Z,54.13
2023-03-02T14:12:09.596Z,93.63
2023-03-02T14:14:40.833Z,5.72
2023-03-02T14:17:16.811Z,14.77
2023-03-02T14:19:48.736Z,4.50
2023-03-02T14:22:19.690Z,4.60
2023-03-02T14:24:48.314Z,66.45
2023-03-02T14:27:20.476Z,5.65
2023-03-02T14:29:49.122Z,6.13
2023-03-02T14:32:18.322Z,31.27
2023-03-02T14:34:48.466Z,4.10
2023-03-02T14:37:23.960Z,3.92
2023-03-02T14:39:55.746Z,5.68
2023-03-02T14:42:32.365Z,47.05
2023-03-02T14:45:00.911Z,17.15
2023-03-02T14:47:32.355Z,5.85
2023-03-02T14:50:08.334Z,21.45
2023-03-02T14:52:59.801Z,55.72
2023-03-02T14:55:32.374Z,30.45
2023-03-02T14:58:05.480Z,6.43
2023-03-02T15:00:34.457Z,8.00
2023-03-02T15:03:04.038Z,8.23
2023-03-02T15:05:32.762Z,7.85
2023-03-02T15:08:01.836Z,15.30
2023-03-02T15:10:33.271Z,40.80
2023-03-02T15:13:02.917Z,10.40
2023-03-02T15:15:34.335Z,49.00
2023-03-02T15:18:06.157Z,32.88
2023-03-02T15:20:41.691Z,7.78
2023-03-02T15:23:19.220Z,6.10
2023-03-02T15:25:48.954Z,64.95
2023-03-02T15:28:18.363Z,47.25
2023-03-02T15:30:47.825Z,11.45
2023-03-02T15:33:19.613Z,7.13
2023-03-02T15:35:55.634Z,27.77
2023-03-02T15:38:30.982Z,23.58
2023-03-02T15:41:46.594Z,10.55
2023-03-02T15:44:23.207Z,33.47
2023-03-02T15:47:03.074Z,19.83
2023-03-02T15:49:33.012Z,31.15
2023-03-02T15:52:02.791Z,43.55
2023-03-02T15:54:34.705Z,21.67
2023-03-02T15:57:04.455Z,44.08
2023-03-02T15:59:35.386Z,37.45
2023-03-02T16:02:11.636Z,32.28
2023-03-02T16:05:10.127Z,27.33
2023-03-02T16:07:39.630Z,24.20
2023-03-02T16:10:23.593Z,26.42
2023-03-02T16:12:58.090Z,22.08
2023-03-02T16:15:40.167Z,28.15
2023-03-02T16:18:15.968Z,26.55
2023-03-02T16:20:52.262Z,21.35
2023-03-02T16:23:39.106Z,34.72
2023-03-02T16:26:26.906Z,26.20
2023-03-02T16:29:05.386Z,22.13
2023-03-02T16:31:38.443Z,17.15
2023-03-02T16:34:11.522Z,16.00
2023-03-02T16:36:51.006Z,15.27
2023-03-02T16:39:27.343Z,14.68
2023-03-02T16:41:57.029Z,16.17
2023-03-02T16:44:26.494Z,16.58
2023-03-02T16:46:57.616Z,16.40
2023-03-02T16:49:28.758Z,15.82
2023-03-02T16:52:01.506Z,72.10
2023-03-02T16:54:32.891Z,24.13
2023-03-02T16:57:03.549Z,21.23
2023-03-02T16:59:38.597Z,20.15
2023-03-02T17:02:11.613Z,16.05
2023-03-02T17:04:42.249Z,18.40
2023-03-02T17:07:11.636Z,20.23
2023-03-02T17:09:47.237Z,22.25
2023-03-02T17:12:18.880Z,19.10
2023-03-02T17:14:48.490Z,23.98
2023-03-02T17:17:25.888Z,16.30
2023-03-02T17:19:59.157Z,26.73
2023-03-02T17:22:43.765Z,119.45
2023-03-02T17:25:18.637Z,41.03
2023-03-02T17:27:51.680Z,40.88
2023-03-02T17:30:32.103Z,37.15
2023-03-02T17:33:13.077Z,31.85
2023-03-02T17:35:49.477Z,33.67
2023-03-02T17:38:25.153Z,88.13
2023-03-02T17:41:07.588Z,277.15
2023-03-02T17:43:39.561Z,340.70
2023-03-02T17:46:23.363Z,115.10
2023-03-02T17:49:01.212Z,107.97
2023-03-02T17:51:31.724Z,89.10
2023-03-02T17:54:01.210Z,58.05
2023-03-02T17:56:31.007Z,45.92
2023-03-02T17:59:01.823Z,29.73
2023-03-02T18:01:35.118Z,33.65
2023-03-02T18:04:11.278Z,55.53
2023-03-02T18:06:41.971Z,49.13
2023-03-02T18:09:19.063Z,66.90
2023-03-02T18:13:29.007Z,79.30
2023-03-02T18:15:57.789Z,108.00
2023-03-02T18:18:30.231Z,86.50
2023-03-02T18:21:00.674Z,73.82
2023-03-02T18:23:30.818Z,68.05
2023-03-02T18:25:59.558Z,87.15
2023-03-02T18:28:38.075Z,74.57
2023-03-02T18:31:09.518Z,53.30
2023-03-02T18:33:39.177Z,47.97
2023-03-02T18:36:08.663Z,53.25
2023-03-02T18:38:37.880Z,55.15
2023-03-02T18:41:09.299Z,66.93
2023-03-02T18:43:41.075Z,49.05
2023-03-02T18:46:24.472Z,51.75
2023-03-02T18:48:55.067Z,66.20
2023-03-02T18:51:26.035Z,53.58
2023-03-02T18:59:18.518Z,48.45
2023-03-02T19:01:49.048Z,48.38
2023-03-02T19:04:19.597Z,47.00
2023-03-02T19:06:48.849Z,58.75
2023-03-02T19:09:17.559Z,53.70
2023-03-02T19:11:46.084Z,69.88
2023-03-02T19:14:16.378Z,71.35
2023-03-02T19:17:01.113Z,73.18
2023-03-02T19:19:30.331Z,47.55
2023-03-02T19:22:09.767Z,61.75
2023-03-02T19:24:59.010Z,54.80
2023-03-02T19:27:29.771Z,55.40
2023-03-02T19:30:01.137Z,48.63
2023-03-02T19:32:29.836Z,40.03
2023-03-02T19:37:43.395Z,55.65
2023-03-02T19:40:14.943Z,63.78
2023-03-02T19:42:45.489Z,45.90
2023-03-02T19:45:24.429Z,46.67
2023-03-02T19:47:57.767Z,35.15
2023-03-02T19:51:03.388Z,36.63
2023-03-02T19:53:39.090Z,36.75
2023-03-02T19:56:15.399Z,40.25
2023-03-02T19:58:53.170Z,50.65
2023-03-02T20:03:57.391Z,59.60
2023-03-02T20:06:32.216Z,57.17
2023-03-02T20:09:04.943Z,53.72
2023-03-02T20:11:34.293Z,48.45
2023-03-02T20:14:05.055Z,52.92
2023-03-02T20:16:40.355Z,59.33
2023-03-02T20:19:11.684Z,77.72
2023-03-02T20:21:42.256Z,72.93
2023-03-02T20:24:16.243Z,72.75
2023-03-02T20:26:45.832Z,62.08
2023-03-02T20:29:18.932Z,55.03
2023-03-02T20:31:49.351Z,45.25
2023-03-02T20:34:18.644Z,43.47
2023-03-02T20:36:47.717Z,39.22
2023-03-02T20:39:38.026Z,42.63
2023-03-02T20:42:22.871Z,43.03
2023-03-02T20:44:52.309Z,50.60
2023-03-02T20:47:23.569Z,49.05
2023-03-02T20:49:55.707Z,46.40
2023-03-02T20:52:29.257Z,39.92
2023-03-02T20:54:58.273Z,38.75
2023-03-02T20:57:31.573Z,40.58
2023-03-02T21:00:01.466Z,41.45
2023-03-02T21:02:32.952Z,42.85
2023-03-02T21:05:04.767Z,38.53
2023-03-02T21:07:36.821Z,40.35
2023-03-02T21:10:11.809Z,36.83
2023-03-02T21:12:50.109Z,35.88
2023-03-02T21:15:23.049Z,37.25
2023-03-02T21:17:55.990Z,36.65
2023-03-02T21:20:32.160Z,37.55
2023-03-02T21:23:02.826Z,42.90
2023-03-02T21:25:42.406Z,45.67
2023-03-02T21:28:30.121Z,63.00
2023-03-02T21:30:59.390Z,62.13
2023-03-02T21:33:28.613Z,60.17
2023-03-02T21:35:58.370Z,52.25
2023-03-02T21:38:30.691Z,52.78
2023-03-02T21:41:01.686Z,51.72
2023-03-02T21:43:29.871Z,51.05
2023-03-02T21:45:58.690Z,50.38
2023-03-02T21:48:28.452Z,47.95
2023-03-02T21:50:58.440Z,51.53
2023-03-02T21:53:26.802Z,53.50
2023-03-02T21:55:58.516Z,55.50
2023-03-02T21:58:26.908Z,49.35
2023-03-02T22:00:56.731Z,45.55
2023-03-02T22:03:30.686Z,45.90
2023-03-02T22:06:01.073Z,43.40
2023-03-02T22:08:39.637Z,41.95
2023-03-02T22:11:19.952Z,42.17
2023-03-02T22:13:53.247Z,40.38
2023-03-02T22:16:39.466Z,39.65
2023-03-02T22:19:24.970Z,44.05
2023-03-02T22:24:32.164Z,38.35
2023-03-02T22:27:26.129Z,39.90
2023-03-02T22:29:59.051Z,40.63
2023-03-02T22:32:30.618Z,41.50
2023-03-02T22:35:02.851Z,41.67
2023-03-02T22:37:34.884Z,41.85
2023-03-02T22:40:28.952Z,41.50
2023-03-02T22:43:02.606Z,37.53
2023-03-02T22:45:35.150Z,36.45
2023-03-02T22:48:20.434Z,42.78
2023-03-02T22:50:50.681Z,40.00
2023-03-02T22:53:27.676Z,43.63
2023-03-02T22:58:51.284Z,40.97
2023-03-02T23:01:20.547Z,42.92
2023-03-02T23:03:59.644Z,47.65
2023-03-02T23:06:42.695Z,42.67
2023-03-02T23:09:17.674Z,41.67
2023-03-02T23:11:49.620Z,46.38
2023-03-02T23:14:25.144Z,62.38
2023-03-02T23:17:00.941Z,88.30
2023-03-02T23:22:00.121Z,40.22
2023-03-02T23:24:29.227Z,35.97
2023-03-02T23:26:57.713Z,38.35
2023-03-02T23:29:35.339Z,40.53
2023-03-02T23:32:03.729Z,43.78
2023-03-02T23:34:34.291Z,41.72
2023-03-02T23:37:04.254Z,63.50
2023-03-02T23:39:33.346Z,51.65
2023-03-02T23:42:02.164Z,47.38
2023-03-02T23:44:32.063Z,47.78
2023-03-02T23:47:12.013Z,42.05
2023-03-02T23:49:41.192Z,38.05
2023-03-02T23:52:11.944Z,36.85
2023-03-02T23:54:42.263Z,35.53
2023-03-02T23:57:10.779Z,37.85
2023-03-02T23:59:39.274Z,37.55
